Rechercher aéroport 
image banner adimage banner adimage banner ad
image banner ad

CL25 - 7R Ranch

Situé à Cuyama, United States

ICAO - CL25, IATA -

Données fournies par Airmate  

Information générale

Coordonnées: N34°56'8" W119°27'6"
Élévation : 3176 feet MSL.
Variation magnétique : 14° East
Voir autres Aéroports à California

Données opérationnelles

Special qualification required
Heure actuelle UTC:
Heure actuelle locale:
Météo à : KBFL - Meadows Field ( 66 km )
METAR: KBFL 251454Z 00000KT 8SM CLR 28/04 A2991 RMK AO2 SLP121 T02830044 51009
TAF: KBFL 251120Z 2512/2612 VRB06KT P6SM FEW250 FM260300 VRB05KT P6SM FEW250 FM260500 33007KT P6SM FEW250
Voir NOTAMs / SUP AIP / TFR affectant cet aéroport [VIEW]
Fréquences de communication: [VIEW]

Pistes:

Identifiant RWYQFULongueur (ft)Largeur (ft)SurfaceLDA (ft)
11235040GRASS
29235040GRASS

Coordonnées de l'aéroport

Adresse: Cuyama United States

Vue satellite de CL25